Time;durP1;ratioP1;P1;durP2;ratioP2;P2;SDS_P1;SDS_P2;PMS_P1;PMS_P2;Temp;Humidity;BMP_temperature;BMP_pressure;BME280_temperature;BME280_humidity;BME280_pressure;Samples;Min_cycle;Max_cycle;Signal;HPM_P1;HPM_P2
2022/10/27 00:01:22;;;;;;;65.67;34.13;;;;;;;;;;6178454;28;20026;-73
2022/10/27 00:04:22;;;;;;;59.75;32.60;;;;;;;;;;6189882;28;20019;-73
2022/10/27 00:07:22;;;;;;;59.33;32.53;;;;;;;;;;6187887;28;20181;-73
2022/10/27 00:10:22;;;;;;;48.03;28.43;;;;;;;;;;6186766;28;20018;-73
2022/10/27 00:13:23;;;;;;;58.13;32.63;;;;;;;;;;6182927;28;20344;-73
2022/10/27 00:16:23;;;;;;;56.15;32.22;;;;;;;;;;6169530;28;20277;-73
2022/10/27 00:19:24;;;;;;;60.63;32.70;;;;;;;;;;6173658;28;20477;-73
2022/10/27 00:22:24;;;;;;;58.77;34.70;;;;;;;;;;6152813;28;20021;-72
2022/10/27 00:25:24;;;;;;;52.97;30.33;;;;;;;;;;6175995;28;20093;-73
2022/10/27 00:28:25;;;;;;;54.28;30.17;;;;;;;;;;6157334;28;20063;-73
2022/10/27 00:31:25;;;;;;;53.37;28.50;;;;;;;;;;6173333;28;20019;-73
2022/10/27 00:34:25;;;;;;;51.00;27.53;;;;;;;;;;6162749;28;20749;-73
2022/10/27 00:37:26;;;;;;;49.47;28.85;;;;;;;;;;6164007;28;20022;-73
2022/10/27 00:40:27;;;;;;;59.15;27.50;;;;;;;;;;6163227;28;20023;-72
2022/10/27 00:43:27;;;;;;;57.03;30.58;;;;;;;;;;6172737;28;20097;-73
2022/10/27 00:46:34;;;;;;;59.30;31.53;;;;;;;;;;6161673;28;20491;-73
2022/10/27 00:49:37;;;;;;;83.13;39.05;;;;;;;;;;6161655;28;20391;-73
2022/10/27 00:52:37;;;;;;;65.97;34.78;;;;;;;;;;6168128;28;20014;-73
2022/10/27 00:55:38;;;;;;;60.67;32.97;;;;;;;;;;6175409;28;20066;-73
2022/10/27 00:58:39;;;;;;;67.13;34.60;;;;;;;;;;6180979;28;20023;-73
2022/10/27 01:01:40;;;;;;;68.97;35.13;;;;;;;;;;6181606;28;20065;-73
2022/10/27 01:04:46;;;;;;;56.70;33.50;;;;;;;;;;6178198;28;20022;-73
2022/10/27 01:07:47;;;;;;;57.33;32.45;;;;;;;;;;6174220;28;20554;-73
2022/10/27 01:10:47;;;;;;;57.03;30.75;;;;;;;;;;6174883;28;20370;-73
2022/10/27 01:13:48;;;;;;;56.77;32.50;;;;;;;;;;6163287;28;20058;-73
2022/10/27 01:16:56;;;;;;;56.50;31.38;;;;;;;;;;6161277;28;20026;-73
2022/10/27 01:20:15;;;;;;;57.90;31.45;;;;;;;;;;6185306;28;20014;-73
2022/10/27 01:23:18;;;;;;;61.50;31.50;;;;;;;;;;6167035;28;20097;-73
2022/10/27 01:26:24;;;;;;;63.50;31.08;;;;;;;;;;6180566;28;20115;-73
2022/10/27 01:29:33;;;;;;;64.88;33.53;;;;;;;;;;6183423;28;20032;-73
2022/10/27 01:32:52;;;;;;;56.67;30.48;;;;;;;;;;6159925;28;20046;-73
2022/10/27 01:35:52;;;;;;;63.63;31.55;;;;;;;;;;6173541;28;20081;-73
2022/10/27 01:38:57;;;;;;;58.88;28.67;;;;;;;;;;6174322;28;20408;-73
2022/10/27 01:42:00;;;;;;;52.00;31.08;;;;;;;;;;6172681;28;20313;-73
2022/10/27 01:45:01;;;;;;;70.20;33.10;;;;;;;;;;6172542;28;20105;-73
2022/10/27 01:48:03;;;;;;;67.63;32.03;;;;;;;;;;6147429;28;20023;-73
2022/10/27 01:51:05;;;;;;;61.03;33.88;;;;;;;;;;6170475;28;20027;-73
2022/10/27 01:54:06;;;;;;;64.28;31.33;;;;;;;;;;6191727;28;20015;-73
2022/10/27 01:57:12;;;;;;;76.13;33.40;;;;;;;;;;6167824;28;20130;-73
2022/10/27 02:00:13;;;;;;;84.18;36.15;;;;;;;;;;6172687;28;20379;-72
2022/10/27 02:03:16;;;;;;;58.38;27.83;;;;;;;;;;6185987;28;20026;-72
2022/10/27 02:06:30;;;;;;;69.05;32.78;;;;;;;;;;6173197;28;20074;-72
2022/10/27 02:09:53;;;;;;;81.68;34.63;;;;;;;;;;6172984;28;20023;-73
2022/10/27 02:12:55;;;;;;;92.85;35.90;;;;;;;;;;6180239;28;20026;-73
2022/10/27 02:15:59;;;;;;;107.85;36.05;;;;;;;;;;6175905;28;20078;-73
2022/10/27 02:19:06;;;;;;;114.22;38.25;;;;;;;;;;6154697;28;20031;-73
2022/10/27 02:22:06;;;;;;;93.15;34.22;;;;;;;;;;6154903;28;20065;-73
2022/10/27 02:25:07;;;;;;;85.80;33.28;;;;;;;;;;6171440;28;20479;-73
2022/10/27 02:28:08;;;;;;;86.90;33.83;;;;;;;;;;6182580;28;20025;-73
2022/10/27 02:31:09;;;;;;;63.60;27.80;;;;;;;;;;6185103;28;20046;-73
2022/10/27 02:34:09;;;;;;;73.45;34.60;;;;;;;;;;6173784;28;20418;-73
2022/10/27 02:37:10;;;;;;;78.53;34.90;;;;;;;;;;6171695;28;20034;-73
2022/10/27 02:40:10;;;;;;;63.60;32.23;;;;;;;;;;6168004;28;20029;-73
2022/10/27 02:43:10;;;;;;;61.63;31.17;;;;;;;;;;6185637;28;20019;-73
2022/10/27 02:46:10;;;;;;;71.10;34.42;;;;;;;;;;6169889;28;20113;-73
2022/10/27 02:49:10;;;;;;;72.47;35.77;;;;;;;;;;6180365;28;20033;-73
2022/10/27 02:52:11;;;;;;;64.27;32.30;;;;;;;;;;6176958;28;20073;-73
2022/10/27 02:55:11;;;;;;;67.25;31.63;;;;;;;;;;6171896;28;20345;-73
2022/10/27 02:58:11;;;;;;;74.63;32.70;;;;;;;;;;6182792;28;20069;-73
2022/10/27 03:01:11;;;;;;;56.22;28.30;;;;;;;;;;6155193;28;20394;-73
2022/10/27 03:04:11;;;;;;;72.32;31.08;;;;;;;;;;6189178;28;20074;-73
2022/10/27 03:07:12;;;;;;;71.67;32.37;;;;;;;;;;6176019;28;20554;-73
2022/10/27 03:10:12;;;;;;;58.82;31.34;;;;;;;;;;6176260;28;20014;-73
2022/10/27 03:13:12;;;;;;;83.15;37.67;;;;;;;;;;6176220;28;20026;-73
2022/10/27 03:16:12;;;;;;;52.93;27.67;;;;;;;;;;6190675;28;20023;-73
2022/10/27 03:19:12;;;;;;;89.75;41.22;;;;;;;;;;6175684;28;20031;-73
2022/10/27 03:22:12;;;;;;;76.95;36.92;;;;;;;;;;6177960;28;20351;-73
2022/10/27 03:25:14;;;;;;;72.75;35.42;;;;;;;;;;6175405;28;20098;-73
2022/10/27 03:28:14;;;;;;;84.57;40.22;;;;;;;;;;6185847;28;20474;-73
2022/10/27 03:31:14;;;;;;;73.83;37.10;;;;;;;;;;6188649;28;20053;-73
2022/10/27 03:34:14;;;;;;;75.57;36.05;;;;;;;;;;6171191;28;20494;-73
2022/10/27 03:37:14;;;;;;;76.65;36.15;;;;;;;;;;6177820;28;20270;-73
2022/10/27 03:40:15;;;;;;;65.63;34.90;;;;;;;;;;6175820;28;20023;-73
2022/10/27 03:43:15;;;;;;;64.23;33.97;;;;;;;;;;6188514;28;20023;-73
2022/10/27 03:46:15;;;;;;;78.47;37.27;;;;;;;;;;6176809;28;20015;-73
2022/10/27 03:49:15;;;;;;;75.20;35.30;;;;;;;;;;6197741;28;20022;-73
2022/10/27 03:52:15;;;;;;;59.95;32.50;;;;;;;;;;6162491;28;20270;-73
2022/10/27 03:55:16;;;;;;;63.30;32.33;;;;;;;;;;6192603;28;20014;-74
2022/10/27 03:58:17;;;;;;;65.47;32.75;;;;;;;;;;6186352;28;19991;-74
2022/10/27 04:01:17;;;;;;;64.23;30.37;;;;;;;;;;6175897;28;20015;-74
2022/10/27 04:04:17;;;;;;;64.35;31.27;;;;;;;;;;6175534;28;20019;-73
2022/10/27 04:07:17;;;;;;;59.13;29.73;;;;;;;;;;6167745;28;20054;-73
2022/10/27 04:10:17;;;;;;;77.00;35.30;;;;;;;;;;6170705;28;20026;-73
2022/10/27 04:13:18;;;;;;;62.70;32.43;;;;;;;;;;6174023;28;20026;-74
2022/10/27 04:16:18;;;;;;;62.40;31.55;;;;;;;;;;6169663;28;20297;-74
2022/10/27 04:19:18;;;;;;;68.30;31.85;;;;;;;;;;6168494;28;20434;-74
2022/10/27 04:22:18;;;;;;;68.90;32.80;;;;;;;;;;6171562;28;20023;-74
2022/10/27 04:25:19;;;;;;;57.13;32.00;;;;;;;;;;6171480;28;20042;-74
2022/10/27 04:28:19;;;;;;;57.67;30.00;;;;;;;;;;6169673;28;20400;-73
2022/10/27 04:31:19;;;;;;;55.07;29.70;;;;;;;;;;6181128;28;20065;-73
2022/10/27 04:34:19;;;;;;;58.25;32.65;;;;;;;;;;6165978;28;20057;-74
2022/10/27 04:37:20;;;;;;;65.40;33.42;;;;;;;;;;6170354;28;20292;-74
2022/10/27 04:40:20;;;;;;;74.22;35.25;;;;;;;;;;6169331;28;20118;-73
2022/10/27 04:43:20;;;;;;;69.43;33.75;;;;;;;;;;6173969;28;20395;-73
2022/10/27 04:46:20;;;;;;;68.07;33.87;;;;;;;;;;6169863;28;20070;-73
2022/10/27 04:49:20;;;;;;;60.58;32.53;;;;;;;;;;6171382;28;20106;-73
2022/10/27 04:52:21;;;;;;;52.47;29.57;;;;;;;;;;6173773;28;20015;-74
2022/10/27 04:55:21;;;;;;;55.45;29.85;;;;;;;;;;6171219;28;20616;-74
2022/10/27 04:58:21;;;;;;;59.60;29.73;;;;;;;;;;6165865;28;20026;-74
2022/10/27 05:01:22;;;;;;;51.23;27.63;;;;;;;;;;6156342;28;20070;-74
2022/10/27 05:04:22;;;;;;;57.20;27.40;;;;;;;;;;6161049;28;20051;-74
2022/10/27 05:07:23;;;;;;;47.47;26.98;;;;;;;;;;6170024;28;20384;-74
2022/10/27 05:10:23;;;;;;;48.58;28.13;;;;;;;;;;6166450;28;20030;-74
2022/10/27 05:13:24;;;;;;;53.17;26.93;;;;;;;;;;6149736;28;20027;-74
2022/10/27 05:16:24;;;;;;;52.97;27.67;;;;;;;;;;6161792;28;20014;-74
2022/10/27 05:19:24;;;;;;;50.70;28.97;;;;;;;;;;6161890;28;20395;-74
2022/10/27 05:22:24;;;;;;;60.85;30.05;;;;;;;;;;6173814;28;20423;-74
2022/10/27 05:25:24;;;;;;;52.47;27.40;;;;;;;;;;6173520;28;20076;-74
2022/10/27 05:28:25;;;;;;;58.90;30.07;;;;;;;;;;6174325;28;20411;-74
2022/10/27 05:31:25;;;;;;;49.60;28.73;;;;;;;;;;6165603;28;20019;-74
2022/10/27 05:34:25;;;;;;;59.88;29.25;;;;;;;;;;6170329;28;20038;-74
2022/10/27 05:37:25;;;;;;;46.70;28.48;;;;;;;;;;6167537;28;20023;-74
2022/10/27 05:40:26;;;;;;;53.66;28.12;;;;;;;;;;6168662;28;20031;-74
2022/10/27 05:43:26;;;;;;;65.68;31.67;;;;;;;;;;6157648;28;20487;-74
2022/10/27 05:46:26;;;;;;;65.90;32.80;;;;;;;;;;6168601;28;20022;-74
2022/10/27 05:49:26;;;;;;;59.30;30.55;;;;;;;;;;6152086;28;20126;-74
2022/10/27 05:52:27;;;;;;;58.93;29.70;;;;;;;;;;6169884;28;20364;-74
2022/10/27 05:55:27;;;;;;;56.37;29.40;;;;;;;;;;6173324;28;20015;-74
2022/10/27 05:58:27;;;;;;;57.63;29.50;;;;;;;;;;6165061;28;20270;-74
2022/10/27 06:01:27;;;;;;;65.20;30.50;;;;;;;;;;6155603;28;20482;-74
2022/10/27 06:04:27;;;;;;;71.00;32.53;;;;;;;;;;6173823;28;20045;-74
2022/10/27 06:07:28;;;;;;;93.10;32.40;;;;;;;;;;6163038;28;20260;-74
2022/10/27 06:10:28;;;;;;;113.20;34.67;;;;;;;;;;6161410;28;20122;-73
2022/10/27 06:13:29;;;;;;;126.43;37.20;;;;;;;;;;6142686;28;20388;-73
2022/10/27 06:16:29;;;;;;;124.60;39.57;;;;;;;;;;6170320;28;20027;-74
2022/10/27 06:19:29;;;;;;;155.60;39.88;;;;;;;;;;6167434;28;20537;-74
2022/10/27 06:22:29;;;;;;;164.80;37.03;;;;;;;;;;6168877;28;20023;-73
2022/10/27 06:25:29;;;;;;;128.30;33.57;;;;;;;;;;6172706;28;20019;-74
2022/10/27 06:28:29;;;;;;;167.30;34.55;;;;;;;;;;6168242;28;20027;-74
2022/10/27 06:31:30;;;;;;;152.20;35.15;;;;;;;;;;6162996;28;20050;-73
2022/10/27 06:34:30;;;;;;;186.10;34.83;;;;;;;;;;6162315;28;20046;-73
2022/10/27 06:37:30;;;;;;;212.00;40.53;;;;;;;;;;6170741;28;20022;-73
2022/10/27 06:40:30;;;;;;;202.88;38.85;;;;;;;;;;6172761;28;20014;-73
2022/10/27 06:43:30;;;;;;;246.20;42.45;;;;;;;;;;6172284;28;20082;-74
2022/10/27 06:46:33;;;;;;;239.98;40.75;;;;;;;;;;6163829;28;20038;-74
2022/10/27 06:49:33;;;;;;;199.65;41.05;;;;;;;;;;6166364;28;20031;-74
2022/10/27 06:52:39;;;;;;;147.27;35.08;;;;;;;;;;6170903;28;20066;-74
2022/10/27 06:55:40;;;;;;;207.85;37.83;;;;;;;;;;6171023;28;20026;-74
2022/10/27 06:58:40;;;;;;;256.70;41.05;;;;;;;;;;6175703;28;20443;-74
2022/10/27 07:01:40;;;;;;;213.00;35.17;;;;;;;;;;6175205;28;20022;-74
2022/10/27 07:04:40;;;;;;;154.50;31.67;;;;;;;;;;6173469;28;20082;-74
2022/10/27 07:07:44;;;;;;;222.87;34.93;;;;;;;;;;6160215;28;20035;-73
2022/10/27 07:10:44;;;;;;;170.32;31.98;;;;;;;;;;6165897;28;20423;-74
2022/10/27 07:13:45;;;;;;;116.43;29.90;;;;;;;;;;6173395;28;20019;-74
2022/10/27 07:16:45;;;;;;;133.90;31.58;;;;;;;;;;6170293;28;20031;-74
2022/10/27 07:19:45;;;;;;;193.13;33.80;;;;;;;;;;6169104;28;20030;-73
2022/10/27 07:22:45;;;;;;;211.48;33.38;;;;;;;;;;6159954;28;20494;-74
2022/10/27 07:25:49;;;;;;;117.45;27.25;;;;;;;;;;6167252;28;20124;-74
2022/10/27 07:28:49;;;;;;;118.25;29.95;;;;;;;;;;6174743;28;20266;-74
2022/10/27 07:31:49;;;;;;;126.43;30.17;;;;;;;;;;6175460;28;20069;-73
2022/10/27 07:34:49;;;;;;;127.03;30.70;;;;;;;;;;6173939;28;20025;-73
2022/10/27 07:37:50;;;;;;;148.83;32.40;;;;;;;;;;6167088;28;20070;-73
2022/10/27 07:40:50;;;;;;;148.40;30.00;;;;;;;;;;6172092;28;20035;-73
2022/10/27 07:43:50;;;;;;;131.13;31.83;;;;;;;;;;6171776;28;20015;-73
2022/10/27 07:46:50;;;;;;;118.57;28.07;;;;;;;;;;6174339;28;20019;-74
2022/10/27 07:49:50;;;;;;;112.63;30.27;;;;;;;;;;6172537;28;20031;-74
2022/10/27 07:52:51;;;;;;;145.75;28.27;;;;;;;;;;6168789;28;20027;-74
2022/10/27 07:55:51;;;;;;;131.40;29.97;;;;;;;;;;6158589;28;20027;-74
2022/10/27 07:58:51;;;;;;;100.57;30.45;;;;;;;;;;6163585;28;20356;-74
2022/10/27 08:01:52;;;;;;;115.73;30.57;;;;;;;;;;6176528;28;20030;-74
2022/10/27 08:04:53;;;;;;;90.00;29.33;;;;;;;;;;6183264;28;20049;-74
2022/10/27 08:07:57;;;;;;;130.43;30.35;;;;;;;;;;6175575;28;20034;-74
2022/10/27 08:10:57;;;;;;;111.15;28.33;;;;;;;;;;6174424;28;20612;-74
2022/10/27 08:13:58;;;;;;;139.93;30.23;;;;;;;;;;6156931;28;20457;-74
2022/10/27 08:16:58;;;;;;;73.35;27.65;;;;;;;;;;6182061;28;20031;-74
2022/10/27 08:19:58;;;;;;;71.72;30.05;;;;;;;;;;6174966;28;20111;-74
2022/10/27 08:23:00;;;;;;;79.07;28.93;;;;;;;;;;6155409;28;20023;-73
2022/10/27 08:26:00;;;;;;;78.60;31.33;;;;;;;;;;6168791;28;20023;-74
2022/10/27 08:29:00;;;;;;;73.97;28.90;;;;;;;;;;6185308;28;20019;-74
2022/10/27 08:32:00;;;;;;;105.40;29.85;;;;;;;;;;6173516;28;20038;-74
2022/10/27 08:35:00;;;;;;;96.23;31.03;;;;;;;;;;6178503;28;20507;-74
2022/10/27 08:38:07;;;;;;;68.28;29.70;;;;;;;;;;6165853;28;20070;-73
2022/10/27 08:41:19;;;;;;;77.97;30.55;;;;;;;;;;6174781;28;20368;-73
2022/10/27 08:44:28;;;;;;;44.95;26.35;;;;;;;;;;6175064;28;20106;-73
2022/10/27 08:47:29;;;;;;;66.82;29.45;;;;;;;;;;6183068;28;20026;-74
2022/10/27 08:50:32;;;;;;;57.33;28.05;;;;;;;;;;6178833;28;20541;-74
2022/10/27 08:53:33;;;;;;;50.58;28.38;;;;;;;;;;6165090;28;20023;-74
2022/10/27 08:56:37;;;;;;;48.20;28.27;;;;;;;;;;6176208;28;20033;-74
2022/10/27 08:59:38;;;;;;;46.47;29.83;;;;;;;;;;6162525;28;20026;-74
2022/10/27 09:02:44;;;;;;;52.45;29.40;;;;;;;;;;6173750;28;20352;-74
2022/10/27 09:05:58;;;;;;;51.15;29.08;;;;;;;;;;6168350;28;20051;-74
2022/10/27 09:09:08;;;;;;;58.58;31.88;;;;;;;;;;6158517;28;20023;-74
2022/10/27 09:12:27;;;;;;;55.83;28.60;;;;;;;;;;6168109;28;20030;-74
2022/10/27 09:15:32;;;;;;;50.53;30.20;;;;;;;;;;6172507;28;20027;-74
2022/10/27 09:18:39;;;;;;;53.65;31.17;;;;;;;;;;6173271;28;20328;-75
2022/10/27 09:21:40;;;;;;;51.85;29.75;;;;;;;;;;6163225;28;20034;-75
2022/10/27 09:24:40;;;;;;;54.58;31.20;;;;;;;;;;6156228;28;20149;-75
2022/10/27 09:27:41;;;;;;;45.72;27.13;;;;;;;;;;6160248;28;20018;-75
2022/10/27 09:30:42;;;;;;;47.63;29.58;;;;;;;;;;6168050;28;20026;-75
2022/10/27 09:33:48;;;;;;;51.53;30.15;;;;;;;;;;6162932;28;20011;-75
2022/10/27 09:36:48;;;;;;;46.20;31.13;;;;;;;;;;6161009;28;20027;-75
2022/10/27 09:39:50;;;;;;;46.57;29.93;;;;;;;;;;6166269;28;20050;-75
2022/10/27 09:42:54;;;;;;;44.50;28.77;;;;;;;;;;6155659;28;20069;-75
2022/10/27 09:46:00;;;;;;;51.92;30.17;;;;;;;;;;6166741;28;20149;-74
2022/10/27 09:49:02;;;;;;;47.33;29.02;;;;;;;;;;6170531;28;20541;-74
2022/10/27 09:52:05;;;;;;;44.10;27.08;;;;;;;;;;6162331;28;20019;-74
2022/10/27 09:55:05;;;;;;;52.25;30.95;;;;;;;;;;6150200;28;20019;-74
2022/10/27 09:58:05;;;;;;;47.73;29.80;;;;;;;;;;6169962;28;20065;-74
2022/10/27 10:01:06;;;;;;;40.45;26.05;;;;;;;;;;6155000;28;20118;-74
2022/10/27 10:04:14;;;;;;;42.60;28.30;;;;;;;;;;6173142;28;20019;-74
2022/10/27 10:07:27;;;;;;;36.47;26.13;;;;;;;;;;6167580;28;20055;-74
2022/10/27 10:10:28;;;;;;;37.78;25.48;;;;;;;;;;6173648;28;20015;-74
2022/10/27 10:13:28;;;;;;;;;;;;;;;;;;6173214;28;20078;-74
2022/10/27 10:16:29;;;;;;;33.60;22.00;;;;;;;;;;6158873;28;19914;-73
2022/10/27 10:19:29;;;;;;;36.80;23.30;;;;;;;;;;6165494;28;20546;-73
2022/10/27 10:22:30;;;;;;;40.07;24.73;;;;;;;;;;6166740;28;20387;-73
2022/10/27 10:25:31;;;;;;;;;;;;;;;;;;6149423;28;20085;-72
2022/10/27 10:28:34;;;;;;;33.03;21.42;;;;;;;;;;6170352;28;20369;-73
2022/10/27 10:31:35;;;;;;;38.10;24.00;;;;;;;;;;6158552;28;20474;-73
2022/10/27 10:34:35;;;;;;;;;;;;;;;;;;6155057;28;20015;-73
2022/10/27 10:37:36;;;;;;;38.60;25.73;;;;;;;;;;6167356;28;20286;-73
2022/10/27 10:40:37;;;;;;;36.13;23.13;;;;;;;;;;6169388;28;20020;-74
2022/10/27 10:43:38;;;;;;;41.83;26.23;;;;;;;;;;6148241;28;20039;-73
2022/10/27 10:46:50;;;;;;;31.75;20.63;;;;;;;;;;6163493;28;20027;-73
2022/10/27 10:49:59;;;;;;;62.97;33.67;;;;;;;;;;6158967;28;20471;-74
2022/10/27 10:52:59;;;;;;;36.13;22.25;;;;;;;;;;6144599;28;20034;-73
2022/10/27 10:56:03;;;;;;;41.60;23.47;;;;;;;;;;6166028;28;20546;-74
2022/10/27 10:59:06;;;;;;;38.97;21.58;;;;;;;;;;6143609;28;20125;-74
2022/10/27 11:02:15;;;;;;;40.45;22.95;;;;;;;;;;6155495;28;20031;-73
2022/10/27 11:05:24;;;;;;;39.00;21.55;;;;;;;;;;6152345;28;20045;-73
2022/10/27 11:08:28;;;;;;;46.15;25.15;;;;;;;;;;6166221;28;20493;-73
2022/10/27 11:11:32;;;;;;;36.90;21.55;;;;;;;;;;6167846;28;20023;-74
2022/10/27 11:14:33;;;;;;;32.90;19.92;;;;;;;;;;6162146;28;20113;-74
2022/10/27 11:17:34;;;;;;;32.25;20.38;;;;;;;;;;6165433;28;20031;-74
2022/10/27 11:20:36;;;;;;;30.27;17.48;;;;;;;;;;6161306;28;20031;-73
2022/10/27 11:23:46;;;;;;;32.00;19.35;;;;;;;;;;6145373;28;20065;-74
2022/10/27 11:27:10;;;;;;;30.80;17.15;;;;;;;;;;6166937;28;20015;-74
2022/10/27 11:30:19;;;;;;;29.80;19.55;;;;;;;;;;6167003;28;20038;-73
2022/10/27 11:33:19;;;;;;;30.05;18.63;;;;;;;;;;6166143;28;20038;-73
2022/10/27 11:36:25;;;;;;;29.88;17.85;;;;;;;;;;6164978;28;20100;-73
2022/10/27 11:39:29;;;;;;;27.50;15.98;;;;;;;;;;6174318;28;20054;-73
2022/10/27 11:42:35;;;;;;;24.20;14.55;;;;;;;;;;6175498;28;20031;-73
2022/10/27 11:45:44;;;;;;;24.67;13.88;;;;;;;;;;6171529;28;20085;-73
2022/10/27 11:48:52;;;;;;;23.27;17.55;;;;;;;;;;6161399;28;20045;-73
2022/10/27 11:51:56;;;;;;;29.75;18.65;;;;;;;;;;6171988;28;20101;-73
2022/10/27 11:54:57;;;;;;;27.35;16.95;;;;;;;;;;6168874;28;20035;-73
2022/10/27 11:58:00;;;;;;;26.90;17.27;;;;;;;;;;6152314;28;20054;-73
2022/10/27 12:01:03;;;;;;;29.73;16.30;;;;;;;;;;6167222;28;20039;-74
2022/10/27 12:04:19;;;;;;;27.17;16.38;;;;;;;;;;6164636;28;20395;-73
2022/10/27 12:07:22;;;;;;;26.55;16.65;;;;;;;;;;6167124;28;20392;-73
2022/10/27 12:10:32;;;;;;;29.63;16.52;;;;;;;;;;6167564;28;20061;-73
2022/10/27 12:13:42;;;;;;;29.70;18.20;;;;;;;;;;6165163;28;20134;-73
2022/10/27 12:16:48;;;;;;;28.40;16.87;;;;;;;;;;6161337;28;20019;-73
2022/10/27 12:19:51;;;;;;;30.13;16.92;;;;;;;;;;6171161;28;20034;-73
2022/10/27 12:23:10;;;;;;;30.98;17.58;;;;;;;;;;6159813;28;20019;-73
2022/10/27 12:26:16;;;;;;;32.60;19.25;;;;;;;;;;6158823;28;20380;-73
2022/10/27 12:29:17;;;;;;;34.42;19.05;;;;;;;;;;6168230;28;20023;-74
2022/10/27 12:32:33;;;;;;;35.65;19.63;;;;;;;;;;6162709;28;20558;-74
2022/10/27 12:35:38;;;;;;;28.30;17.70;;;;;;;;;;6164137;28;20007;-74
2022/10/27 12:38:44;;;;;;;29.67;18.65;;;;;;;;;;6173580;28;20021;-74
2022/10/27 12:42:04;;;;;;;47.40;25.90;;;;;;;;;;6174607;28;20463;-75
2022/10/27 12:45:07;;;;;;;31.95;17.95;;;;;;;;;;6152818;28;20030;-74
2022/10/27 12:48:15;;;;;;;31.23;21.50;;;;;;;;;;6169705;28;20022;-73
2022/10/27 12:51:30;;;;;;;30.85;16.77;;;;;;;;;;6155973;28;20598;-74
2022/10/27 12:54:33;;;;;;;27.65;16.92;;;;;;;;;;6157183;28;20065;-73
2022/10/27 12:57:36;;;;;;;29.50;18.30;;;;;;;;;;6155848;28;20049;-73
2022/10/27 13:00:46;;;;;;;32.28;17.83;;;;;;;;;;6157234;28;20019;-74
2022/10/27 13:03:51;;;;;;;48.25;27.50;;;;;;;;;;6157894;28;20053;-74
2022/10/27 13:07:07;;;;;;;36.72;20.80;;;;;;;;;;6154030;28;20101;-74
2022/10/27 13:10:19;;;;;;;29.95;17.60;;;;;;;;;;6172414;28;20026;-74
2022/10/27 13:13:19;;;;;;;23.33;11.23;;;;;;;;;;6166227;28;20041;-74
2022/10/27 13:16:38;;;;;;;23.25;11.15;;;;;;;;;;6166180;28;20030;-74
2022/10/27 13:19:45;;;;;;;16.92;8.70;;;;;;;;;;6169042;28;20083;-74
2022/10/27 13:22:50;;;;;;;16.42;8.68;;;;;;;;;;6161813;28;22366;-74
2022/10/27 13:25:53;;;;;;;18.08;8.40;;;;;;;;;;6170923;28;20122;-74
2022/10/27 13:29:05;;;;;;;18.98;8.75;;;;;;;;;;6172029;28;20026;-74
2022/10/27 13:32:31;;;;;;;15.48;9.25;;;;;;;;;;6154260;28;20027;-74
2022/10/27 13:35:32;;;;;;;19.17;8.98;;;;;;;;;;6164964;28;20149;-74
2022/10/27 13:38:33;;;;;;;;;;;;;;;;;;6175867;28;20019;-73
2022/10/27 13:41:51;;;;;;;17.75;8.57;;;;;;;;;;6165479;28;19914;-73
2022/10/27 13:44:51;;;;;;;16.30;9.02;;;;;;;;;;6170753;28;20371;-73
2022/10/27 13:48:10;;;;;;;13.50;9.07;;;;;;;;;;6167972;28;20039;-74
2022/10/27 13:51:33;;;;;;;20.48;8.75;;;;;;;;;;6162653;28;20043;-73
2022/10/27 13:54:50;;;;;;;15.45;7.78;;;;;;;;;;6151107;28;20402;-73
2022/10/27 13:58:00;;;;;;;21.65;11.15;;;;;;;;;;6161696;28;20025;-74
2022/10/27 14:01:15;;;;;;;17.52;9.30;;;;;;;;;;6165492;28;20026;-73
2022/10/27 14:04:23;;;;;;;15.30;8.27;;;;;;;;;;6158518;28;20102;-73
2022/10/27 14:07:24;;;;;;;16.05;10.25;;;;;;;;;;6159599;28;20050;-73
2022/10/27 14:10:24;;;;;;;19.35;9.15;;;;;;;;;;6167433;28;20046;-74
2022/10/27 14:13:29;;;;;;;25.70;8.97;;;;;;;;;;6148180;28;20031;-74
2022/10/27 14:16:33;;;;;;;18.85;9.77;;;;;;;;;;6166508;28;20138;-73
2022/10/27 14:19:35;;;;;;;23.50;10.02;;;;;;;;;;6160572;28;20102;-74
2022/10/27 14:22:37;;;;;;;20.98;11.57;;;;;;;;;;6162730;28;20479;-74
2022/10/27 14:25:37;;;;;;;24.10;12.57;;;;;;;;;;6159176;28;20026;-74
2022/10/27 14:28:45;;;;;;;25.67;14.73;;;;;;;;;;6158156;28;20021;-74
2022/10/27 14:31:45;;;;;;;28.35;15.65;;;;;;;;;;6167311;28;20058;-74
2022/10/27 14:34:46;;;;;;;27.30;15.93;;;;;;;;;;6163727;28;20030;-74
2022/10/27 14:37:46;;;;;;;28.77;16.53;;;;;;;;;;6160814;28;20045;-74
2022/10/27 14:40:47;;;;;;;28.43;15.60;;;;;;;;;;6161391;28;20290;-74
2022/10/27 14:43:49;;;;;;;38.63;25.40;;;;;;;;;;6162926;28;20030;-74
2022/10/27 14:46:51;;;;;;;96.93;61.20;;;;;;;;;;6157065;28;20275;-74
2022/10/27 14:49:54;;;;;;;103.53;69.95;;;;;;;;;;6154525;28;20027;-74
2022/10/27 14:52:56;;;;;;;109.18;79.75;;;;;;;;;;6150572;28;20059;-74
2022/10/27 14:56:02;;;;;;;99.47;73.28;;;;;;;;;;6161347;28;20033;-74
2022/10/27 14:59:04;;;;;;;84.75;63.67;;;;;;;;;;6152343;28;20078;-74
2022/10/27 15:02:09;;;;;;;31.20;22.08;;;;;;;;;;6142751;28;20027;-74
2022/10/27 15:05:23;;;;;;;31.38;19.80;;;;;;;;;;6155396;28;20086;-74
2022/10/27 15:08:27;;;;;;;27.52;17.10;;;;;;;;;;6163180;28;20023;-74
2022/10/27 15:11:27;;;;;;;35.75;22.00;;;;;;;;;;6165371;28;20023;-74
2022/10/27 15:14:30;;;;;;;36.88;23.48;;;;;;;;;;6165497;28;20141;-74
2022/10/27 15:17:31;;;;;;;32.70;19.48;;;;;;;;;;6161471;28;20449;-74
2022/10/27 15:20:32;;;;;;;26.08;17.45;;;;;;;;;;6161083;28;20416;-74
2022/10/27 15:23:33;;;;;;;28.25;16.60;;;;;;;;;;6154693;28;20523;-74
2022/10/27 15:26:33;;;;;;;38.30;22.27;;;;;;;;;;6165318;28;20029;-74
2022/10/27 15:29:34;;;;;;;37.20;22.07;;;;;;;;;;6170861;28;20102;-74
2022/10/27 15:32:37;;;;;;;37.13;24.40;;;;;;;;;;6161392;28;20030;-74
2022/10/27 15:35:38;;;;;;;35.55;22.23;;;;;;;;;;6171687;28;20103;-74
2022/10/27 15:38:38;;;;;;;30.87;17.83;;;;;;;;;;6167561;28;20047;-73
2022/10/27 15:41:46;;;;;;;33.30;21.10;;;;;;;;;;6152434;28;20398;-74
2022/10/27 15:44:46;;;;;;;30.80;19.83;;;;;;;;;;6166593;28;20077;-74
2022/10/27 15:47:47;;;;;;;40.27;20.63;;;;;;;;;;6174343;28;20485;-75
2022/10/27 15:50:55;;;;;;;47.28;25.73;;;;;;;;;;6173256;28;20026;-74
2022/10/27 15:53:56;;;;;;;42.53;25.50;;;;;;;;;;6162421;28;20487;-74
2022/10/27 15:56:56;;;;;;;49.07;25.23;;;;;;;;;;6161461;28;20062;-74
2022/10/27 16:00:11;;;;;;;41.03;24.57;;;;;;;;;;6151500;28;20019;-74
2022/10/27 16:03:25;;;;;;;35.97;20.75;;;;;;;;;;6155816;28;20128;-74
2022/10/27 16:06:27;;;;;;;31.75;18.92;;;;;;;;;;6169952;28;20054;-74
2022/10/27 16:09:38;;;;;;;30.52;18.88;;;;;;;;;;6162954;28;20479;-74
2022/10/27 16:12:42;;;;;;;26.10;15.68;;;;;;;;;;6167876;28;20019;-74
2022/10/27 16:15:43;;;;;;;32.35;16.38;;;;;;;;;;6172573;28;20125;-74
2022/10/27 16:18:43;;;;;;;36.55;20.80;;;;;;;;;;6169300;28;20026;-74
2022/10/27 16:21:43;;;;;;;43.10;23.70;;;;;;;;;;6166371;28;20018;-74
2022/10/27 16:24:44;;;;;;;40.90;24.17;;;;;;;;;;6170489;28;20019;-74
2022/10/27 16:27:44;;;;;;;43.27;24.03;;;;;;;;;;6154447;28;20011;-74
2022/10/27 16:30:44;;;;;;;64.57;34.63;;;;;;;;;;6170440;28;20046;-74
2022/10/27 16:33:45;;;;;;;73.17;37.03;;;;;;;;;;6165210;28;20026;-74
2022/10/27 16:36:47;;;;;;;70.90;39.13;;;;;;;;;;6171262;28;20364;-74
2022/10/27 16:39:48;;;;;;;73.93;38.05;;;;;;;;;;6163432;28;20038;-74
2022/10/27 16:42:51;;;;;;;65.13;35.60;;;;;;;;;;6166149;28;20483;-74
2022/10/27 16:45:51;;;;;;;58.92;34.42;;;;;;;;;;6164501;28;20015;-74
2022/10/27 16:48:51;;;;;;;46.77;25.83;;;;;;;;;;6163204;28;20058;-74
2022/10/27 16:51:51;;;;;;;35.00;19.88;;;;;;;;;;6167643;28;20031;-74
2022/10/27 16:54:51;;;;;;;43.93;25.90;;;;;;;;;;6161581;28;20411;-74
2022/10/27 16:57:54;;;;;;;47.80;29.23;;;;;;;;;;6166220;28;20030;-74
2022/10/27 17:00:54;;;;;;;50.60;27.75;;;;;;;;;;6169435;28;20087;-74
2022/10/27 17:03:54;;;;;;;49.20;31.17;;;;;;;;;;6161311;28;20026;-74
2022/10/27 17:06:54;;;;;;;46.90;25.13;;;;;;;;;;6162895;28;20499;-74
2022/10/27 17:09:54;;;;;;;48.63;26.20;;;;;;;;;;6171939;28;20328;-73
2022/10/27 17:12:54;;;;;;;46.58;24.30;;;;;;;;;;6157349;28;20130;-74
2022/10/27 17:15:55;;;;;;;37.97;22.83;;;;;;;;;;6166525;28;20375;-73
2022/10/27 17:18:55;;;;;;;52.55;28.88;;;;;;;;;;6164534;28;20081;-74
2022/10/27 17:21:55;;;;;;;54.33;34.03;;;;;;;;;;6162423;28;20065;-74
2022/10/27 17:24:55;;;;;;;73.00;40.83;;;;;;;;;;6157554;28;20037;-74
2022/10/27 17:27:55;;;;;;;89.38;52.00;;;;;;;;;;6154552;28;20109;-74
2022/10/27 17:30:59;;;;;;;82.68;48.03;;;;;;;;;;6163095;28;20023;-74
2022/10/27 17:34:00;;;;;;;111.65;68.07;;;;;;;;;;6160508;28;20023;-74
2022/10/27 17:37:00;;;;;;;110.77;64.10;;;;;;;;;;6158218;28;20487;-73
2022/10/27 17:40:01;;;;;;;71.47;45.63;;;;;;;;;;6160343;28;20346;-73
2022/10/27 17:43:01;;;;;;;50.03;28.17;;;;;;;;;;6158050;28;20015;-73